Time;durP1;ratioP1;P1;durP2;ratioP2;P2;SDS_P1;SDS_P2;PMS_P1;PMS_P2;Temp;Humidity;BMP_temperature;BMP_pressure;BME280_temperature;BME280_humidity;BME280_pressure;Samples;Min_cycle;Max_cycle;Signal;HPM_P1;HPM_P2
2021/06/14 00:01:23;;;;;;;20.23;8.10;;;;;;;12.37;66.37;100204.50;5011588;28;20057;-62
2021/06/14 00:03:49;;;;;;;15.63;7.10;;;;;;;12.54;65.56;100204.66;5011737;28;20385;-62
2021/06/14 00:06:14;;;;;;;18.25;7.60;;;;;;;12.44;65.86;100210.59;5015102;28;20408;-62
2021/06/14 00:08:43;;;;;;;23.08;7.80;;;;;;;12.39;66.25;100205.09;5015116;28;20036;-62
2021/06/14 00:11:09;;;;;;;17.50;7.88;;;;;;;12.43;66.46;100198.19;5015054;28;20057;-62
2021/06/14 00:13:34;;;;;;;18.30;7.60;;;;;;;12.27;67.40;100205.03;5014228;28;20119;-62
2021/06/14 00:16:00;;;;;;;18.20;7.85;;;;;;;12.03;68.42;100201.44;5015323;28;20064;-62
2021/06/14 00:18:26;;;;;;;16.15;7.53;;;;;;;12.05;67.85;100200.19;5015363;28;20515;-62
2021/06/14 00:21:05;;;;;;;17.38;7.68;;;;;;;11.98;68.37;100201.31;5014836;28;20431;-62
2021/06/14 00:23:31;;;;;;;19.75;8.95;;;;;;;11.94;68.43;100202.84;5013984;28;20103;-62
2021/06/14 00:25:58;;;;;;;16.15;8.40;;;;;;;11.87;68.58;100201.03;5014962;28;20077;-62
2021/06/14 00:28:23;;;;;;;18.98;8.30;;;;;;;11.86;69.12;100194.03;5015319;28;20431;-62
2021/06/14 00:30:51;;;;;;;14.27;7.80;;;;;;;11.91;69.54;100200.63;5014701;28;20117;-62
2021/06/14 00:33:16;;;;;;;18.83;9.00;;;;;;;11.93;68.68;100185.91;5014975;28;20152;-61
2021/06/14 00:35:42;;;;;;;17.55;9.52;;;;;;;11.80;68.71;100186.84;5014542;28;20076;-62
2021/06/14 00:38:07;;;;;;;18.77;8.57;;;;;;;11.84;69.84;100182.66;5014858;28;20025;-62
2021/06/14 00:40:33;;;;;;;18.52;8.32;;;;;;;11.85;68.77;100181.63;5014456;28;20029;-62
2021/06/14 00:42:58;;;;;;;18.13;8.10;;;;;;;11.71;70.13;100184.72;5014717;28;20026;-62
2021/06/14 00:45:29;;;;;;;13.63;7.80;;;;;;;11.57;70.29;100186.75;5013166;28;20053;-61
2021/06/14 00:47:54;;;;;;;20.73;8.48;;;;;;;11.65;72.37;100179.19;5014786;28;20496;-62
2021/06/14 00:50:22;;;;;;;16.15;7.85;;;;;;;11.49;70.38;100176.31;5014131;28;20041;-62
2021/06/14 00:52:48;;;;;;;14.20;8.05;;;;;;;11.42;71.28;100187.13;5013537;28;20022;-61
2021/06/14 00:55:16;;;;;;;14.48;7.75;;;;;;;11.04;72.47;100190.03;5012931;28;20461;-62
2021/06/14 00:57:41;;;;;;;20.65;9.88;;;;;;;11.11;73.05;100180.06;5014504;28;20487;-62
2021/06/14 01:00:07;;;;;;;18.92;9.18;;;;;;;11.26;72.40;100172.47;5012601;28;20037;-62
2021/06/14 01:02:32;;;;;;;20.17;9.63;;;;;;;11.43;71.88;100168.13;5014404;28;20022;-62
2021/06/14 01:04:58;;;;;;;16.88;9.30;;;;;;;11.34;72.07;100168.66;5014296;28;20029;-62
2021/06/14 01:07:27;;;;;;;18.25;8.80;;;;;;;11.15;73.26;100175.88;5013777;28;20045;-62
2021/06/14 01:09:53;;;;;;;18.65;9.35;;;;;;;11.07;73.91;100168.94;5014218;28;20481;-62
2021/06/14 01:12:21;;;;;;;21.63;9.63;;;;;;;11.14;74.26;100174.25;4996256;28;20056;-61
2021/06/14 01:15:19;;;;;;;20.35;9.85;;;;;;;11.12;73.77;100165.59;4996985;28;20026;-62
2021/06/14 01:17:55;;;;;;;21.85;9.30;;;;;;;11.07;74.02;100160.06;5012408;28;20038;-62
2021/06/14 01:21:09;;;;;;;23.58;9.68;;;;;;;11.16;73.09;100161.44;5014012;28;20042;-62
2021/06/14 01:23:59;;;;;;;19.52;8.38;;;;;;;10.93;72.61;100165.59;4992292;28;20041;-62
2021/06/14 01:26:25;;;;;;;17.63;8.57;;;;;;;10.74;73.49;100166.59;4991952;28;20049;-62
2021/06/14 01:28:53;;;;;;;21.25;8.13;;;;;;;10.65;74.11;100154.50;5006386;28;20034;-62
2021/06/14 01:31:18;;;;;;;20.83;8.45;;;;;;;10.58;73.89;100155.38;5012441;28;20123;-62
2021/06/14 01:33:44;;;;;;;23.05;9.13;;;;;;;10.44;75.00;100153.84;4996186;28;20461;-62
2021/06/14 01:36:17;;;;;;;16.85;9.68;;;;;;;10.27;77.24;100158.09;5011911;28;20061;-61
2021/06/14 01:38:44;;;;;;;19.13;9.95;;;;;;;10.63;76.19;100154.72;4996952;28;20029;-62
2021/06/14 01:41:10;;;;;;;19.15;9.63;;;;;;;10.63;75.54;100156.56;5012201;28;20116;-61
2021/06/14 01:43:37;;;;;;;17.63;10.13;;;;;;;10.69;75.03;100158.38;5012378;28;20076;-62
2021/06/14 01:46:14;;;;;;;22.30;10.13;;;;;;;10.76;74.74;100157.28;5013230;28;20040;-62
2021/06/14 01:48:40;;;;;;;18.40;8.57;;;;;;;10.72;74.30;100155.25;5013426;28;20041;-62
2021/06/14 01:51:07;;;;;;;15.18;8.07;;;;;;;10.52;74.03;100148.22;4995810;28;20034;-61
2021/06/14 01:53:33;;;;;;;19.40;8.77;;;;;;;10.38;74.67;100145.84;5012216;28;20108;-61
2021/06/14 01:55:58;;;;;;;17.27;8.43;;;;;;;10.31;75.49;100156.66;5011985;28;20459;-62
2021/06/14 01:58:24;;;;;;;18.80;9.35;;;;;;;10.29;76.26;100156.84;5013441;28;20026;-62
2021/06/14 02:00:49;;;;;;;18.90;9.25;;;;;;;10.33;75.49;100149.19;5012331;28;20507;-62
2021/06/14 02:03:15;;;;;;;19.38;9.00;;;;;;;10.23;79.37;100149.63;5012133;28;20025;-61
2021/06/14 02:05:41;;;;;;;18.95;9.40;;;;;;;10.20;77.14;100147.41;4979020;28;20038;-62
2021/06/14 02:08:10;;;;;;;17.42;9.45;;;;;;;10.25;76.82;100152.13;5011904;28;20184;-62
2021/06/14 02:10:35;;;;;;;16.35;8.98;;;;;;;10.06;77.32;100152.06;5013203;28;20162;-61
2021/06/14 02:13:04;;;;;;;17.85;9.23;;;;;;;10.24;77.46;100140.59;5011995;28;20057;-61
2021/06/14 02:15:30;;;;;;;15.25;8.55;;;;;;;10.34;76.80;100137.44;5012726;28;20091;-62
2021/06/14 02:17:56;;;;;;;15.52;8.90;;;;;;;10.43;76.03;100137.97;4995416;28;20030;-62
2021/06/14 02:20:22;;;;;;;16.92;8.85;;;;;;;10.36;75.71;100135.38;5011163;28;20049;-62
2021/06/14 02:22:47;;;;;;;21.95;9.68;;;;;;;10.17;77.18;100120.25;5013195;28;20058;-61
2021/06/14 02:25:13;;;;;;;17.70;9.30;;;;;;;10.19;77.19;100135.06;5011369;28;20022;-62
2021/06/14 02:27:38;;;;;;;15.32;9.15;;;;;;;10.05;76.58;100128.97;5011313;28;20038;-62
2021/06/14 02:30:10;;;;;;;15.68;9.00;;;;;;;10.06;76.29;100124.41;5011195;28;20029;-61
2021/06/14 02:32:35;;;;;;;19.85;9.00;;;;;;;9.90;75.58;100128.44;5012876;28;20396;-62
2021/06/14 02:35:00;;;;;;;15.82;8.57;;;;;;;9.72;76.92;100124.66;5012647;28;20026;-62
2021/06/14 02:37:26;;;;;;;17.77;8.98;;;;;;;9.78;77.79;100133.66;5011607;28;20409;-62
2021/06/14 02:39:51;;;;;;;17.88;8.93;;;;;;;9.93;79.20;100126.19;5011722;28;20461;-62
2021/06/14 02:42:17;;;;;;;16.98;8.52;;;;;;;9.94;76.47;100127.81;5011084;28;20496;-62
2021/06/14 02:44:43;;;;;;;17.13;8.57;;;;;;;9.68;77.95;100128.81;5011539;28;20030;-62
2021/06/14 02:47:10;;;;;;;17.45;9.73;;;;;;;9.84;79.60;100126.66;4994691;28;20375;-62
2021/06/14 02:49:35;;;;;;;16.85;8.85;;;;;;;9.81;77.59;100119.03;5012923;28;20034;-62
2021/06/14 02:52:02;;;;;;;20.48;9.30;;;;;;;9.52;78.93;100126.63;5011159;28;20049;-62
2021/06/14 02:54:34;;;;;;;23.17;9.57;;;;;;;9.57;79.82;100129.47;5012650;28;20528;-62
2021/06/14 02:57:00;;;;;;;24.10;10.27;;;;;;;9.69;79.99;100117.06;5011083;28;20041;-62
2021/06/14 02:59:26;;;;;;;23.92;10.32;;;;;;;9.74;78.08;100110.25;4994864;28;20046;-62
2021/06/14 03:01:51;;;;;;;16.48;9.43;;;;;;;9.72;77.65;100108.59;5012116;28;20492;-61
2021/06/14 03:04:17;;;;;;;17.70;8.80;;;;;;;9.60;76.96;100110.28;5011274;28;20468;-62
2021/06/14 03:06:46;;;;;;;18.25;9.10;;;;;;;9.55;78.48;100112.78;5012133;28;20030;-62
2021/06/14 03:09:11;;;;;;;20.27;9.40;;;;;;;9.49;78.11;100111.00;5011192;28;20105;-62
2021/06/14 03:11:39;;;;;;;16.30;9.30;;;;;;;9.42;77.30;100113.69;5012204;28;20120;-61
2021/06/14 03:14:04;;;;;;;15.70;8.77;;;;;;;9.20;78.32;100115.84;5012122;28;20026;-60
2021/06/14 03:16:31;;;;;;;15.93;8.77;;;;;;;9.29;79.00;100114.56;5011837;28;20041;-60
2021/06/14 03:18:56;;;;;;;14.55;8.52;;;;;;;9.40;79.15;100098.88;4994930;28;20034;-61
2021/06/14 03:21:22;;;;;;;18.10;10.25;;;;;;;9.61;79.20;100111.97;5010599;28;20153;-61
2021/06/14 03:23:51;;;;;;;16.50;9.23;;;;;;;9.46;76.26;100106.88;5012164;28;20444;-61
2021/06/14 03:26:16;;;;;;;14.23;8.77;;;;;;;9.42;76.49;100105.66;5010286;28;20496;-60
2021/06/14 03:28:42;;;;;;;16.70;9.75;;;;;;;9.57;76.09;100113.41;4994400;28;20034;-60
2021/06/14 03:31:09;;;;;;;18.30;9.30;;;;;;;9.78;75.70;100114.13;5011800;28;20045;-61
2021/06/14 03:33:34;;;;;;;15.65;7.93;;;;;;;10.64;72.94;100121.50;4994555;28;20035;-61
2021/06/14 03:35:59;;;;;;;16.83;8.40;;;;;;;11.54;69.72;100120.09;4994247;28;20038;-61
2021/06/14 03:38:25;;;;;;;16.58;8.20;;;;;;;12.53;66.18;100120.47;5010955;28;20477;-61
2021/06/14 03:40:50;;;;;;;16.58;8.18;;;;;;;13.17;65.08;100126.72;5015081;28;20045;-61
2021/06/14 03:43:16;;;;;;;16.38;8.52;;;;;;;13.81;61.40;100109.66;5014682;28;20026;-62
2021/06/14 03:45:42;;;;;;;21.55;7.75;;;;;;;14.08;58.55;100109.88;5015539;28;20049;-61
2021/06/14 03:48:07;;;;;;;15.07;7.53;;;;;;;14.21;58.63;100111.41;5015933;28;20041;-61
2021/06/14 03:50:33;;;;;;;15.63;7.35;;;;;;;13.94;59.47;100116.63;5015943;28;20034;-61
2021/06/14 03:52:58;;;;;;;17.25;8.05;;;;;;;15.12;57.48;100113.84;5016011;28;20030;-61
2021/06/14 03:55:24;;;;;;;14.45;6.97;;;;;;;15.85;53.34;100108.19;5015738;28;20034;-61
2021/06/14 03:57:49;;;;;;;16.55;8.52;;;;;;;16.26;51.98;100120.19;4998742;28;20030;-61
2021/06/14 04:00:15;;;;;;;10.38;6.78;;;;;;;16.45;51.33;100117.91;5015513;28;20127;-62
2021/06/14 04:02:44;;;;;;;16.60;6.80;;;;;;;17.08;49.05;100125.34;5015735;28;20026;-62
2021/06/14 04:05:10;;;;;;;13.95;6.28;;;;;;;16.42;50.59;100121.09;5015610;28;20030;-62
2021/06/14 04:07:36;;;;;;;15.70;7.03;;;;;;;16.85;49.67;100121.16;5015859;28;20088;-61
2021/06/14 04:10:05;;;;;;;11.68;6.82;;;;;;;17.12;49.35;100116.41;5015339;28;20049;-62
2021/06/14 04:12:31;;;;;;;14.77;6.80;;;;;;;19.10;44.20;100114.13;5015817;28;20022;-62
2021/06/14 04:14:56;;;;;;;14.00;6.75;;;;;;;20.56;40.91;100108.31;5014486;28;20045;-61
2021/06/14 04:17:22;;;;;;;15.10;7.03;;;;;;;20.42;40.27;100102.72;5015315;28;20049;-62
2021/06/14 04:19:47;;;;;;;16.10;7.25;;;;;;;20.10;40.95;100106.00;5015833;28;20037;-62
2021/06/14 04:22:13;;;;;;;14.13;7.15;;;;;;;19.97;41.40;100102.81;5015240;28;20038;-61
2021/06/14 04:24:38;;;;;;;23.95;6.80;;;;;;;19.54;42.74;100093.53;5015650;28;20030;-61
2021/06/14 04:27:04;;;;;;;12.15;7.15;;;;;;;20.47;40.41;100100.75;5014993;28;20112;-61
2021/06/14 04:29:30;;;;;;;12.98;7.05;;;;;;;20.56;40.47;100102.88;5015645;28;20453;-61
2021/06/14 04:31:56;;;;;;;17.23;6.93;;;;;;;21.44;38.30;100100.78;4997634;28;20053;-61
2021/06/14 04:34:21;;;;;;;16.40;7.70;;;;;;;21.79;37.82;100104.94;5014221;28;20029;-61
2021/06/14 04:36:47;;;;;;;13.45;7.05;;;;;;;21.07;38.38;100107.78;5015082;28;20034;-61
2021/06/14 04:39:12;;;;;;;16.15;7.40;;;;;;;20.99;39.24;100105.69;5015518;28;20033;-61
2021/06/14 04:41:38;;;;;;;12.23;7.53;;;;;;;20.40;40.51;100099.47;5015058;28;20057;-61
2021/06/14 04:44:03;;;;;;;14.70;7.20;;;;;;;20.08;41.42;100095.38;5015588;28;20030;-61
2021/06/14 04:46:29;;;;;;;15.75;7.82;;;;;;;20.08;41.93;100075.53;5015066;28;20034;-61
2021/06/14 04:48:54;;;;;;;17.30;8.18;;;;;;;21.15;39.59;100081.81;5015216;28;20474;-61
2021/06/14 04:51:20;;;;;;;18.52;7.85;;;;;;;23.16;35.87;100084.50;5014877;28;20050;-61
2021/06/14 04:53:45;;;;;;;16.42;8.38;;;;;;;22.84;35.90;100082.69;5015217;28;20059;-61
2021/06/14 04:56:11;;;;;;;13.27;7.53;;;;;;;22.51;37.31;100082.75;5014646;28;20496;-61
2021/06/14 04:58:37;;;;;;;14.75;7.80;;;;;;;22.36;36.83;100088.47;5015067;28;20053;-61
2021/06/14 05:01:02;;;;;;;13.88;7.43;;;;;;;21.89;37.58;100091.16;5014501;28;20042;-61
2021/06/14 05:03:28;;;;;;;17.98;7.20;;;;;;;22.84;35.83;100085.44;5014894;28;20026;-61
2021/06/14 05:05:53;;;;;;;18.75;7.60;;;;;;;23.38;35.09;100085.69;5014439;28;20034;-61
2021/06/14 05:08:19;;;;;;;13.52;7.75;;;;;;;23.47;34.65;100100.28;5014774;28;20088;-61
2021/06/14 05:10:48;;;;;;;13.23;7.78;;;;;;;23.66;34.23;100097.38;5013141;28;20096;-61
2021/06/14 05:13:13;;;;;;;13.77;7.57;;;;;;;24.46;32.66;100097.69;5014857;28;20026;-61
2021/06/14 05:15:39;;;;;;;15.48;8.10;;;;;;;23.67;35.15;100099.00;5014429;28;20068;-61
2021/06/14 05:18:04;;;;;;;17.02;7.80;;;;;;;24.24;33.48;100099.31;5014789;28;20021;-61
2021/06/14 05:20:30;;;;;;;16.35;8.40;;;;;;;24.01;33.90;100101.25;5014209;28;20396;-61
2021/06/14 05:22:56;;;;;;;16.58;8.23;;;;;;;24.25;33.19;100092.69;5014681;28;20029;-60
2021/06/14 05:25:22;;;;;;;17.85;8.35;;;;;;;22.68;36.84;100100.47;5014217;28;20034;-61
2021/06/14 05:27:47;;;;;;;17.02;7.95;;;;;;;23.56;35.24;100097.59;5014534;28;20109;-60
2021/06/14 05:30:13;;;;;;;18.08;8.23;;;;;;;23.89;35.07;100099.06;5014092;28;20038;-61
2021/06/14 05:32:39;;;;;;;15.25;8.52;;;;;;;25.69;31.42;100105.19;5014308;28;20034;-60
2021/06/14 05:35:08;;;;;;;20.05;8.18;;;;;;;25.32;33.13;100099.16;5012809;28;20030;-61
2021/06/14 05:37:34;;;;;;;18.15;8.38;;;;;;;26.02;31.25;100086.28;5013136;28;20032;-62
2021/06/14 05:39:59;;;;;;;19.70;8.23;;;;;;;25.40;32.48;100092.88;5013131;28;20112;-61
2021/06/14 05:42:25;;;;;;;16.77;8.13;;;;;;;25.63;32.41;100088.03;5013028;28;20447;-61
2021/06/14 05:44:50;;;;;;;21.88;8.57;;;;;;;26.29;30.56;100090.63;5014373;28;20164;-61
2021/06/14 05:47:16;;;;;;;16.52;8.25;;;;;;;26.02;30.51;100080.81;5013711;28;20034;-61
2021/06/14 05:49:41;;;;;;;21.73;8.52;;;;;;;26.02;31.20;100080.81;5014266;28;20057;-61
2021/06/14 05:52:07;;;;;;;26.85;8.82;;;;;;;26.98;29.23;100081.31;5013909;28;20539;-61
2021/06/14 05:54:32;;;;;;;20.63;8.50;;;;;;;26.84;29.57;100078.81;5014175;28;20113;-61
2021/06/14 05:56:58;;;;;;;21.67;8.90;;;;;;;26.46;30.84;100078.78;5013820;28;20034;-63
2021/06/14 05:59:23;;;;;;;20.10;9.63;;;;;;;27.65;28.51;100079.59;5014106;28;20405;-61
2021/06/14 06:01:48;;;;;;;17.83;9.00;;;;;;;27.73;28.12;100081.50;5013031;28;20130;-61
2021/06/14 06:04:16;;;;;;;20.10;9.05;;;;;;;27.48;29.41;100071.47;5014215;28;20029;-61
2021/06/14 06:06:41;;;;;;;30.30;9.27;;;;;;;25.88;32.40;100074.66;5013245;28;20060;-61
2021/06/14 06:09:07;;;;;;;21.92;9.10;;;;;;;27.01;30.77;100077.91;5013879;28;20484;-61
2021/06/14 06:11:32;;;;;;;23.08;8.95;;;;;;;27.42;30.03;100078.34;5013562;28;20400;-61
2021/06/14 06:13:58;;;;;;;22.15;9.05;;;;;;;27.04;30.80;100076.44;5012719;28;20029;-61
2021/06/14 06:16:23;;;;;;;20.52;8.77;;;;;;;28.01;28.90;100074.59;5013330;28;20049;-62
2021/06/14 06:18:49;;;;;;;20.17;8.68;;;;;;;27.73;29.14;100075.16;5013980;28;20030;-61
2021/06/14 06:21:14;;;;;;;20.33;8.30;;;;;;;27.96;29.05;100073.69;5013623;28;20476;-61
2021/06/14 06:23:40;;;;;;;20.23;8.63;;;;;;;29.07;27.17;100089.66;5013629;28;20464;-61
2021/06/14 06:26:05;;;;;;;25.15;8.70;;;;;;;27.44;29.62;100089.81;5013420;28;20492;-61
2021/06/14 06:28:31;;;;;;;23.67;8.20;;;;;;;28.13;27.82;100088.44;5013606;28;20065;-61
2021/06/14 06:30:56;;;;;;;26.50;8.40;;;;;;;28.86;26.92;100089.75;5012910;28;20096;-61
2021/06/14 06:33:22;;;;;;;28.77;9.43;;;;;;;29.33;26.62;100079.06;5013540;28;20053;-61
2021/06/14 06:35:47;;;;;;;19.85;8.60;;;;;;;29.02;26.83;100083.19;5013258;28;20080;-61
2021/06/14 06:38:13;;;;;;;20.33;8.23;;;;;;;27.56;29.59;100087.13;5013384;28;20026;-62
2021/06/14 06:40:38;;;;;;;27.00;8.15;;;;;;;28.46;28.51;100091.22;5013242;28;20064;-61
2021/06/14 06:43:03;;;;;;;26.60;9.10;;;;;;;28.30;28.75;100087.44;5013392;28;20023;-61
2021/06/14 06:45:29;;;;;;;27.38;8.80;;;;;;;25.59;34.16;100079.66;5013008;28;20042;-61
2021/06/14 06:47:54;;;;;;;20.42;8.88;;;;;;;27.09;31.03;100079.81;5013520;28;20037;-61
2021/06/14 06:50:20;;;;;;;22.83;8.48;;;;;;;28.44;28.93;100085.19;5013063;28;20050;-61
2021/06/14 06:52:45;;;;;;;20.33;8.65;;;;;;;27.92;29.57;100086.53;5013808;28;20057;-61
2021/06/14 06:55:12;;;;;;;19.92;8.05;;;;;;;29.69;27.41;100093.94;5013172;28;20133;-62
2021/06/14 06:57:38;;;;;;;24.40;7.93;;;;;;;28.85;28.55;100090.88;5013231;28;20482;-61
2021/06/14 07:00:05;;;;;;;21.17;7.80;;;;;;;28.71;28.09;100086.53;5011627;28;20034;-61
2021/06/14 07:02:30;;;;;;;16.08;7.65;;;;;;;29.55;27.06;100091.53;5013270;28;20333;-61
2021/06/14 07:04:56;;;;;;;22.23;7.65;;;;;;;30.33;26.08;100085.84;5013145;28;20022;-61
2021/06/14 07:07:21;;;;;;;26.02;7.82;;;;;;;30.17;26.19;100089.34;5012493;28;20042;-61
2021/06/14 07:09:47;;;;;;;26.17;7.88;;;;;;;30.44;25.98;100092.47;5013291;28;20057;-61
2021/06/14 07:12:12;;;;;;;29.48;7.93;;;;;;;30.51;25.66;100098.19;5012714;28;20110;-61
2021/06/14 07:14:38;;;;;;;34.78;7.82;;;;;;;29.78;26.24;100089.09;5016320;28;20021;-61
2021/06/14 07:17:03;;;;;;;23.40;7.85;;;;;;;30.89;25.00;100092.03;5016649;28;20096;-61
2021/06/14 07:19:29;;;;;;;24.50;7.38;;;;;;;30.09;25.23;100095.84;5017098;28;20036;-61
2021/06/14 07:21:55;;;;;;;27.05;7.13;;;;;;;29.10;27.23;100091.72;5016458;28;20100;-61
2021/06/14 07:24:20;;;;;;;28.70;6.63;;;;;;;29.95;26.77;100089.91;5016903;28;20045;-61
2021/06/14 07:26:46;;;;;;;23.67;6.55;;;;;;;29.40;26.57;100095.81;5016442;28;20038;-61
2021/06/14 07:29:11;;;;;;;19.52;6.78;;;;;;;30.28;24.79;100090.50;5016747;28;20072;-61
2021/06/14 07:31:37;;;;;;;28.63;6.70;;;;;;;29.57;26.91;100085.66;5016190;28;20038;-61
2021/06/14 07:34:02;;;;;;;22.60;6.38;;;;;;;28.26;28.34;100078.28;5016627;28;20030;-61
2021/06/14 07:36:28;;;;;;;21.63;7.20;;;;;;;27.17;29.47;100064.38;5016138;28;20033;-61
2021/06/14 07:38:54;;;;;;;32.10;7.07;;;;;;;28.23;28.64;100060.47;5016490;28;20108;-61
2021/06/14 07:41:20;;;;;;;32.58;6.65;;;;;;;27.90;29.03;100064.00;5015982;28;20034;-61
2021/06/14 07:43:45;;;;;;;38.88;7.40;;;;;;;26.60;31.30;100059.34;5016287;28;20026;-61
2021/06/14 07:46:11;;;;;;;34.42;7.38;;;;;;;29.64;26.77;100066.53;5015949;28;20129;-61
2021/06/14 07:48:36;;;;;;;34.80;6.97;;;;;;;29.99;27.38;100066.75;5016229;28;20436;-60
2021/06/14 07:51:03;;;;;;;33.97;7.13;;;;;;;30.65;26.31;100054.28;5015871;28;20546;-61
2021/06/14 07:53:28;;;;;;;43.20;7.75;;;;;;;30.76;25.37;100053.75;5016128;28;20040;-61
2021/06/14 07:55:55;;;;;;;46.03;7.10;;;;;;;30.41;26.43;100048.94;5015898;28;20033;-61
2021/06/14 07:58:20;;;;;;;44.92;7.15;;;;;;;30.46;26.29;100052.22;5016139;28;20439;-61
2021/06/14 08:00:46;;;;;;;39.08;6.82;;;;;;;31.32;25.09;100053.47;5015373;28;20037;-60
2021/06/14 08:03:11;;;;;;;37.95;7.43;;;;;;;30.93;25.70;100061.69;5014874;28;20054;-61
2021/06/14 08:05:37;;;;;;;40.13;6.78;;;;;;;30.81;25.66;100056.22;5015600;28;20129;-61
2021/06/14 08:08:03;;;;;;;41.75;7.28;;;;;;;31.20;25.31;100057.16;5015720;28;20032;-60
2021/06/14 08:10:28;;;;;;;44.42;6.63;;;;;;;31.84;24.80;100068.00;5015541;28;20125;-60
2021/06/14 08:12:54;;;;;;;40.25;7.00;;;;;;;31.84;25.36;100063.28;5015885;28;20037;-61
2021/06/14 08:15:24;;;;;;;41.10;6.47;;;;;;;30.46;27.23;100048.66;5015405;28;20030;-60
2021/06/14 08:17:51;;;;;;;34.90;7.03;;;;;;;32.83;23.56;100057.94;5015750;28;20117;-60
2021/06/14 08:20:34;;;;;;;29.30;6.63;;;;;;;30.77;25.86;100058.91;5015128;28;20138;-60
2021/06/14 08:25:43;;;;;;;45.28;6.90;;;;;;;30.72;26.57;100048.09;5014702;28;20044;-60
2021/06/14 08:28:09;;;;;;;24.52;5.85;;;;;;;29.90;27.53;100052.28;5015434;28;20022;-60
2021/06/14 08:30:34;;;;;;;31.80;6.22;;;;;;;31.77;24.67;100060.34;5015045;28;20104;-61
2021/06/14 08:33:00;;;;;;;33.65;6.43;;;;;;;29.72;27.65;100057.31;4997830;28;20447;-60
2021/06/14 08:35:26;;;;;;;46.95;7.38;;;;;;;30.35;26.61;100053.09;5015093;28;20038;-60
2021/06/14 08:37:52;;;;;;;32.25;5.82;;;;;;;30.48;26.76;100060.19;5015381;28;20033;-61
2021/06/14 08:40:19;;;;;;;35.72;6.22;;;;;;;31.10;26.30;100052.19;5015112;28;20117;-61
2021/06/14 08:42:45;;;;;;;33.75;6.78;;;;;;;31.62;24.79;100058.47;5015371;28;20072;-60
2021/06/14 08:45:11;;;;;;;25.00;6.20;;;;;;;31.26;25.29;100054.91;5014887;28;20456;-61
2021/06/14 08:47:37;;;;;;;43.70;6.47;;;;;;;30.74;26.01;100046.59;5015378;28;20029;-61
2021/06/14 08:50:04;;;;;;;30.95;5.78;;;;;;;27.96;29.77;100045.34;5014898;28;20053;-61
2021/06/14 08:52:30;;;;;;;31.50;5.80;;;;;;;29.19;28.52;100048.25;5015123;28;20032;-61
2021/06/14 08:54:55;;;;;;;20.10;4.95;;;;;;;30.73;25.51;100038.66;5015286;28;20030;-61
2021/06/14 08:57:21;;;;;;;18.48;5.38;;;;;;;30.60;25.21;100042.66;5013451;28;20073;-61
2021/06/14 08:59:48;;;;;;;19.13;5.70;;;;;;;29.09;27.33;100038.50;5014979;28;20120;-61
2021/06/14 09:02:13;;;;;;;22.17;5.40;;;;;;;27.50;29.91;100033.41;5014710;28;20038;-61
2021/06/14 09:04:39;;;;;;;17.50;4.70;;;;;;;29.87;26.27;100030.91;5015169;28;20420;-61
2021/06/14 09:07:04;;;;;;;21.45;5.65;;;;;;;28.80;27.52;100022.97;5014699;28;20041;-61
2021/06/14 09:09:31;;;;;;;16.67;4.90;;;;;;;29.96;26.58;100019.69;5014986;28;20052;-61
2021/06/14 09:11:56;;;;;;;18.85;4.68;;;;;;;30.73;26.02;100016.53;5014435;28;20040;-61
2021/06/14 09:14:26;;;;;;;20.95;5.03;;;;;;;30.64;26.06;100016.72;5014725;28;20037;-61
2021/06/14 09:16:52;;;;;;;12.63;4.43;;;;;;;29.06;28.12;100016.31;5014291;28;20120;-60
2021/06/14 09:19:33;;;;;;;8.27;3.90;;;;;;;29.95;24.81;99998.72;5014681;28;20061;-61
2021/06/14 09:22:16;;;;;;;7.82;3.78;;;;;;;29.02;25.83;99997.63;5014430;28;20038;-61
2021/06/14 09:25:01;;;;;;;12.43;4.10;;;;;;;27.62;27.68;99994.13;5013377;28;20044;-60
2021/06/14 09:27:28;;;;;;;7.80;3.75;;;;;;;28.24;27.40;99990.41;5014355;28;20034;-60
2021/06/14 09:29:54;;;;;;;7.97;3.65;;;;;;;28.10;26.64;99987.97;5014451;28;20113;-60
2021/06/14 09:32:19;;;;;;;11.63;3.75;;;;;;;24.62;33.37;99977.50;5012717;28;20038;-62
2021/06/14 09:34:46;;;;;;;11.10;3.97;;;;;;;24.21;34.04;99981.34;5013130;28;20034;-61
2021/06/14 09:37:12;;;;;;;10.52;3.70;;;;;;;27.32;29.29;99977.69;5012842;28;20049;-61
2021/06/14 09:39:39;;;;;;;10.98;4.13;;;;;;;25.65;30.70;99969.72;5013127;28;20034;-61
2021/06/14 09:42:26;;;;;;;9.23;3.88;;;;;;;25.70;31.31;99964.03;5013922;28;20034;-61
2021/06/14 09:44:53;;;;;;;10.90;4.20;;;;;;;25.46;33.02;99965.38;5012920;28;20108;-62
2021/06/14 09:47:18;;;;;;;6.85;3.60;;;;;;;26.19;31.23;99953.59;5014093;28;20547;-62
2021/06/14 09:50:06;;;;;;;9.05;4.15;;;;;;;26.67;31.01;99957.91;5014097;28;20033;-61
2021/06/14 09:52:31;;;;;;;10.52;4.15;;;;;;;26.64;30.24;99953.09;5013698;28;20065;-61
2021/06/14 09:55:16;;;;;;;7.65;3.67;;;;;;;26.44;30.30;99944.44;5014031;28;20050;-61
2021/06/14 09:57:42;;;;;;;11.15;4.00;;;;;;;28.49;27.94;99944.38;5013658;28;20054;-62
2021/06/14 10:00:14;;;;;;;11.25;4.18;;;;;;;28.07;28.42;99946.53;5013259;28;20053;-62
2021/06/14 10:02:40;;;;;;;10.02;4.10;;;;;;;28.18;28.80;99945.75;5013840;28;20026;-62
2021/06/14 10:05:19;;;;;;;10.90;3.90;;;;;;;29.80;26.87;99945.06;5013575;28;20034;-62
2021/06/14 10:07:46;;;;;;;9.00;3.72;;;;;;;29.48;26.77;99958.78;5013715;28;20483;-62
2021/06/14 10:10:20;;;;;;;7.30;3.53;;;;;;;25.33;32.00;99945.19;5013362;28;20057;-61
2021/06/14 10:12:50;;;;;;;9.52;3.55;;;;;;;28.48;28.63;99942.78;5012472;28;20100;-62
2021/06/14 10:15:16;;;;;;;12.80;4.00;;;;;;;26.64;30.56;99947.59;5012949;28;20149;-61
2021/06/14 10:17:41;;;;;;;14.35;3.70;;;;;;;24.99;34.01;99945.97;5012333;28;20018;-61
2021/06/14 10:20:27;;;;;;;11.57;3.60;;;;;;;26.90;30.63;99944.66;5013280;28;20396;-62
2021/06/14 10:22:55;;;;;;;10.95;3.65;;;;;;;26.01;31.52;99942.69;5013629;28;20109;-61
2021/06/14 10:25:21;;;;;;;6.88;3.75;;;;;;;27.47;29.18;99935.00;5013144;28;20527;-61
2021/06/14 10:27:46;;;;;;;9.57;3.60;;;;;;;27.85;29.14;99932.03;5013398;28;20076;-62
2021/06/14 10:30:14;;;;;;;7.43;3.55;;;;;;;28.13;27.71;99932.19;5013310;28;20052;-62
2021/06/14 10:32:40;;;;;;;12.52;3.70;;;;;;;28.41;28.30;99934.25;5013762;28;20021;-62
2021/06/14 10:35:07;;;;;;;8.95;3.72;;;;;;;29.54;26.92;99923.44;5013046;28;20026;-62
2021/06/14 10:37:53;;;;;;;9.13;3.70;;;;;;;30.21;26.79;99924.41;5013474;28;20026;-62
2021/06/14 10:40:25;;;;;;;13.88;3.90;;;;;;;28.06;29.14;99934.72;5013289;28;20033;-62
2021/06/14 10:42:50;;;;;;;6.90;3.45;;;;;;;29.24;26.45;99926.56;5013684;28;20536;-62
2021/06/14 10:45:18;;;;;;;6.53;3.15;;;;;;;29.45;26.95;99920.81;5013034;28;20068;-62
2021/06/14 10:47:45;;;;;;;9.57;3.80;;;;;;;29.32;26.67;99917.31;5012998;28;20025;-62
2021/06/14 10:50:12;;;;;;;9.82;3.85;;;;;;;30.02;26.97;99921.53;5012684;28;20030;-62
2021/06/14 10:52:39;;;;;;;9.07;3.65;;;;;;;30.26;26.98;99909.53;5011928;28;20452;-62
2021/06/14 10:55:12;;;;;;;7.55;3.10;;;;;;;28.10;28.07;99913.56;5012867;28;20057;-62
2021/06/14 10:57:39;;;;;;;5.47;3.20;;;;;;;27.84;28.41;99910.34;5013306;28;20022;-62
2021/06/14 11:00:46;;;;;;;7.80;3.58;;;;;;;25.12;31.23;99901.13;5012669;28;20042;-62
2021/06/14 11:03:14;;;;;;;6.60;2.95;;;;;;;27.05;28.81;99902.00;4999461;28;20088;-61
2021/06/14 11:05:41;;;;;;;7.95;3.58;;;;;;;28.22;26.85;99904.50;5011720;28;20049;-62
2021/06/14 11:08:14;;;;;;;7.97;3.50;;;;;;;29.33;26.37;99910.66;5013158;28;20365;-62
2021/06/14 11:10:40;;;;;;;6.40;3.25;;;;;;;27.24;28.41;99905.09;5012890;28;20392;-61
2021/06/14 11:13:15;;;;;;;8.93;3.33;;;;;;;27.38;29.15;99901.22;5012987;28;20038;-62
2021/06/14 11:15:45;;;;;;;7.90;3.70;;;;;;;26.22;30.80;99896.03;5012605;28;20045;-62
2021/06/14 11:18:29;;;;;;;8.82;3.70;;;;;;;26.16;31.99;99891.06;5011824;28;20030;-61
2021/06/14 11:21:11;;;;;;;9.30;3.65;;;;;;;25.77;31.29;99888.28;5012695;28;20038;-61
2021/06/14 11:23:39;;;;;;;9.60;3.78;;;;;;;26.68;29.80;99883.38;5012671;28;20021;-61